createdAt,value
2024-02-15T00:01:55.792Z,12.07
2024-02-15T00:04:22.301Z,8.98
2024-02-15T00:06:48.956Z,10.55
2024-02-15T00:09:15.704Z,9.73
2024-02-15T00:11:42.586Z,11.07
2024-02-15T00:14:09.280Z,15.40
2024-02-15T00:16:39.269Z,8.43
2024-02-15T00:19:08.297Z,12.73
2024-02-15T00:21:36.474Z,11.32
2024-02-15T00:24:03.160Z,11.43
2024-02-15T00:26:29.780Z,8.77
2024-02-15T00:28:56.396Z,6.10
2024-02-15T00:31:23.263Z,8.60
2024-02-15T00:33:52.878Z,10.13
2024-02-15T00:36:19.842Z,8.30
2024-02-15T00:38:46.535Z,9.13
2024-02-15T00:41:13.041Z,6.38
2024-02-15T00:43:44.903Z,10.18
2024-02-15T00:46:11.479Z,9.80
2024-02-15T00:48:38.186Z,9.95
2024-02-15T00:51:05.472Z,8.55
2024-02-15T00:53:32.050Z,8.63
2024-02-15T00:55:58.708Z,8.35
2024-02-15T00:58:25.729Z,7.63
2024-02-15T01:00:52.380Z,9.50
2024-02-15T01:03:18.935Z,6.95
2024-02-15T01:05:45.470Z,7.43
2024-02-15T01:08:12.519Z,12.52
2024-02-15T01:10:39.380Z,10.23
2024-02-15T01:13:06.040Z,8.32
2024-02-15T01:15:32.870Z,8.00
2024-02-15T01:17:59.427Z,10.38
2024-02-15T01:20:26.219Z,7.28
2024-02-15T01:22:53.115Z,7.47
2024-02-15T01:25:19.761Z,10.27
2024-02-15T01:27:46.440Z,8.63
2024-02-15T01:30:13.309Z,8.60
2024-02-15T01:32:43.276Z,12.20
2024-02-15T01:35:11.321Z,15.57
2024-02-15T01:37:38.179Z,8.43
2024-02-15T01:40:08.312Z,11.30
2024-02-15T01:42:35.168Z,14.25
2024-02-15T01:45:01.708Z,12.70
2024-02-15T01:47:28.684Z,14.07
2024-02-15T01:49:55.450Z,11.75
2024-02-15T01:52:23.212Z,11.85
2024-02-15T01:54:52.197Z,19.88
2024-02-15T01:57:20.555Z,15.38
2024-02-15T01:59:47.515Z,16.13
2024-02-15T02:02:16.869Z,16.48
2024-02-15T02:04:43.896Z,16.83
2024-02-15T02:07:10.534Z,16.50
2024-02-15T02:09:39.526Z,14.30
2024-02-15T02:12:06.528Z,9.27
2024-02-15T02:14:33.410Z,14.30
2024-02-15T02:17:14.874Z,14.95
2024-02-15T02:19:44.647Z,15.68
2024-02-15T02:22:11.988Z,15.10
2024-02-15T02:24:54.657Z,16.10
2024-02-15T02:27:22.419Z,15.23
2024-02-15T02:29:49.054Z,10.57
2024-02-15T02:32:15.563Z,14.50
2024-02-15T02:34:42.093Z,15.55
2024-02-15T02:37:09.350Z,14.98
2024-02-15T02:39:35.995Z,11.98
2024-02-15T02:42:02.920Z,14.35
2024-02-15T02:44:29.468Z,15.32
2024-02-15T02:46:56.074Z,12.38
2024-02-15T02:49:22.790Z,13.75
2024-02-15T02:51:49.750Z,13.80
2024-02-15T02:54:16.439Z,9.13
2024-02-15T02:56:44.721Z,11.80
2024-02-15T02:59:11.404Z,18.05
2024-02-15T03:01:38.111Z,13.68
2024-02-15T03:04:04.717Z,9.65
2024-02-15T03:06:31.328Z,12.15
2024-02-15T03:08:58.546Z,13.70
2024-02-15T03:11:25.172Z,10.35
2024-02-15T03:13:51.838Z,8.98
2024-02-15T03:16:18.280Z,13.73
2024-02-15T03:18:45.036Z,9.45
2024-02-15T03:21:11.929Z,14.13
2024-02-15T03:23:38.880Z,11.57
2024-02-15T03:26:09.620Z,12.63
2024-02-15T03:28:37.672Z,8.30
2024-02-15T03:31:04.624Z,13.32
2024-02-15T03:33:36.461Z,11.45
2024-02-15T03:36:03.245Z,13.90
2024-02-15T03:38:30.578Z,11.63
2024-02-15T03:40:57.515Z,15.90
2024-02-15T03:43:24.771Z,9.60
2024-02-15T03:45:52.170Z,8.25
2024-02-15T03:48:25.548Z,12.57
2024-02-15T03:50:52.019Z,11.15
2024-02-15T03:53:18.708Z,7.97
2024-02-15T03:55:45.210Z,12.20
2024-02-15T03:58:11.710Z,9.75
2024-02-15T04:00:40.244Z,12.45
2024-02-15T04:03:06.797Z,10.02
2024-02-15T04:05:34.013Z,10.00
2024-02-15T04:08:06.967Z,11.35
2024-02-15T04:10:33.505Z,13.13
2024-02-15T04:13:02.938Z,8.65
2024-02-15T04:15:29.489Z,9.43
2024-02-15T04:17:57.731Z,8.40
2024-02-15T04:20:24.452Z,10.73
2024-02-15T04:22:51.447Z,9.57
2024-02-15T04:25:19.030Z,7.57
2024-02-15T04:27:48.111Z,9.82
2024-02-15T04:30:17.219Z,13.10
2024-02-15T04:32:44.218Z,9.57
2024-02-15T04:35:13.951Z,8.90
2024-02-15T04:37:50.957Z,10.68
2024-02-15T04:40:19.399Z,9.63
2024-02-15T04:42:48.167Z,8.50
2024-02-15T04:45:35.049Z,8.15
2024-02-15T04:48:03.381Z,8.48
2024-02-15T04:50:30.715Z,12.07
2024-02-15T04:52:57.539Z,8.07
2024-02-15T04:55:24.226Z,8.38
2024-02-15T04:57:55.399Z,8.73
2024-02-15T05:00:24.196Z,8.68
2024-02-15T05:02:51.153Z,7.15
2024-02-15T05:05:20.313Z,8.82
2024-02-15T05:07:47.086Z,4.00
2024-02-15T05:10:13.838Z,8.48
2024-02-15T05:12:44.189Z,10.80
2024-02-15T05:15:12.952Z,9.40
2024-02-15T05:17:46.548Z,9.07
2024-02-15T05:20:21.756Z,8.75
2024-02-15T05:22:50.560Z,9.82
2024-02-15T05:25:26.796Z,11.75
2024-02-15T05:27:58.197Z,8.40
2024-02-15T05:30:25.075Z,7.85
2024-02-15T05:32:54.412Z,9.75
2024-02-15T05:35:21.532Z,8.32
2024-02-15T05:37:48.077Z,8.93
2024-02-15T05:40:17.031Z,9.95
2024-02-15T05:42:46.727Z,9.95
2024-02-15T05:45:30.622Z,8.00
2024-02-15T05:47:57.290Z,8.30
2024-02-15T05:50:25.190Z,7.80
2024-02-15T05:55:21.382Z,6.90
2024-02-15T05:57:48.054Z,7.45
2024-02-15T06:00:21.995Z,7.15
2024-02-15T06:02:51.642Z,5.22
2024-02-15T06:05:19.048Z,10.90
2024-02-15T06:07:47.164Z,6.35
2024-02-15T06:12:41.543Z,7.00
2024-02-15T06:15:16.938Z,6.07
2024-02-15T06:17:45.687Z,6.53
2024-02-15T06:22:42.669Z,6.72
2024-02-15T06:25:11.387Z,7.20
2024-02-15T06:27:41.518Z,7.78
2024-02-15T06:30:31.057Z,7.05
2024-02-15T06:33:17.364Z,10.05
2024-02-15T06:36:02.348Z,9.00
2024-02-15T06:38:47.440Z,9.10
2024-02-15T06:41:14.697Z,13.68
2024-02-15T06:43:41.584Z,8.18
2024-02-15T06:46:09.538Z,6.38
2024-02-15T06:48:36.184Z,7.20
2024-02-15T06:51:04.516Z,8.15
2024-02-15T06:53:31.708Z,6.47
2024-02-15T06:55:58.642Z,7.78
2024-02-15T06:58:25.713Z,9.15
2024-02-15T07:00:52.292Z,5.90
2024-02-15T07:03:18.825Z,11.02
2024-02-15T07:05:45.581Z,6.68
2024-02-15T07:08:13.921Z,8.68
2024-02-15T07:10:40.721Z,7.38
2024-02-15T07:13:07.719Z,7.80
2024-02-15T07:15:39.365Z,6.15
2024-02-15T07:18:11.030Z,10.98
2024-02-15T07:20:38.210Z,7.93
2024-02-15T07:23:07.082Z,7.78
2024-02-15T07:25:33.634Z,7.53
2024-02-15T07:28:00.213Z,10.43
2024-02-15T07:30:26.833Z,8.05
2024-02-15T07:32:53.890Z,6.35
2024-02-15T07:35:20.614Z,6.43
2024-02-15T07:37:59.658Z,6.70
2024-02-15T07:40:29.781Z,5.65
2024-02-15T07:42:59.254Z,7.47
2024-02-15T07:45:26.072Z,5.78
2024-02-15T07:47:52.765Z,7.55
2024-02-15T07:50:23.995Z,5.75
2024-02-15T07:52:51.068Z,6.32
2024-02-15T07:55:18.008Z,7.45
2024-02-15T07:57:44.533Z,6.10
2024-02-15T08:00:11.928Z,6.63
2024-02-15T08:02:42.004Z,5.80
2024-02-15T08:05:11.674Z,6.20
2024-02-15T08:07:46.057Z,6.32
2024-02-15T08:10:16.457Z,5.22
2024-02-15T08:12:45.942Z,5.35
2024-02-15T08:15:13.433Z,2.63
2024-02-15T08:17:41.830Z,3.58
2024-02-15T08:20:10.765Z,3.63
2024-02-15T08:22:41.090Z,4.10
2024-02-15T08:25:12.402Z,3.28
2024-02-15T08:27:46.794Z,4.68
2024-02-15T08:30:14.687Z,5.28
2024-02-15T08:32:44.975Z,4.07
2024-02-15T08:35:13.599Z,3.95
2024-02-15T08:37:42.591Z,3.33
2024-02-15T08:40:14.791Z,2.25
2024-02-15T08:42:42.610Z,3.20
2024-02-15T08:45:10.536Z,4.10
2024-02-15T08:47:41.523Z,4.47
2024-02-15T08:50:10.763Z,3.45
2024-02-15T08:52:41.228Z,3.17
2024-02-15T08:55:10.778Z,2.05
2024-02-15T08:57:38.966Z,4.38
2024-02-15T09:00:15.117Z,2.00
2024-02-15T09:02:42.183Z,1.30
2024-02-15T09:05:08.943Z,1.83
2024-02-15T09:07:39.911Z,5.57
2024-02-15T09:10:08.736Z,2.92
2024-02-15T09:12:35.476Z,3.55
2024-02-15T09:15:02.810Z,2.10
2024-02-15T09:17:29.819Z,6.22
2024-02-15T09:19:56.492Z,4.18
2024-02-15T09:22:23.277Z,2.55
2024-02-15T09:24:49.795Z,3.15
2024-02-15T09:27:16.368Z,2.13
2024-02-15T09:29:43.669Z,3.17
2024-02-15T09:32:10.406Z,2.65
2024-02-15T09:34:37.037Z,3.95
2024-02-15T09:37:03.959Z,3.17
2024-02-15T09:39:30.560Z,4.28
2024-02-15T09:41:59.898Z,2.20
2024-02-15T09:44:31.367Z,2.92
2024-02-15T09:47:07.566Z,5.65
2024-02-15T09:49:37.197Z,3.42
2024-02-15T09:52:04.495Z,3.20
2024-02-15T09:54:32.120Z,3.67
2024-02-15T09:57:03.102Z,2.58
2024-02-15T09:59:29.754Z,3.55
2024-02-15T10:01:59.941Z,3.95
2024-02-15T10:04:26.662Z,4.90
2024-02-15T10:06:53.407Z,6.05
2024-02-15T10:09:30.519Z,3.42
2024-02-15T10:12:01.674Z,6.18
2024-02-15T10:14:30.812Z,3.45
2024-02-15T10:16:57.836Z,3.15
2024-02-15T10:19:28.443Z,4.05
2024-02-15T10:21:59.301Z,6.25
2024-02-15T10:24:26.298Z,3.88
2024-02-15T10:26:53.327Z,3.97
2024-02-15T10:29:21.055Z,5.85
2024-02-15T10:31:58.110Z,4.75
2024-02-15T10:34:25.583Z,4.53
2024-02-15T10:36:52.456Z,6.40
2024-02-15T10:39:21.338Z,5.63
2024-02-15T10:41:50.062Z,4.03
2024-02-15T10:44:19.530Z,4.97
2024-02-15T10:46:53.658Z,4.25
2024-02-15T10:49:22.144Z,6.65
2024-02-15T10:51:59.768Z,4.03
2024-02-15T10:54:48.654Z,4.50
2024-02-15T10:57:23.180Z,4.25
2024-02-15T11:02:31.906Z,5.82
2024-02-15T11:05:05.532Z,10.00
2024-02-15T11:07:33.234Z,4.35
2024-02-15T11:10:01.191Z,4.57
2024-02-15T11:12:29.539Z,6.65
2024-02-15T11:14:56.473Z,6.57
2024-02-15T11:17:38.636Z,5.00
2024-02-15T11:20:10.631Z,5.45
2024-02-15T11:22:38.425Z,6.05
2024-02-15T11:25:12.578Z,5.57
2024-02-15T11:27:40.543Z,8.15
2024-02-15T11:30:11.941Z,7.35
2024-02-15T11:32:51.196Z,6.50
2024-02-15T11:35:21.489Z,6.50
2024-02-15T11:37:55.248Z,10.23
2024-02-15T11:40:30.356Z,9.65
2024-02-15T11:43:02.239Z,8.27
2024-02-15T11:45:42.747Z,9.15
2024-02-15T11:48:14.499Z,5.47
2024-02-15T11:50:42.462Z,8.90
2024-02-15T11:53:19.790Z,5.47
2024-02-15T11:56:01.373Z,7.22
2024-02-15T11:58:42.801Z,6.05
2024-02-15T12:01:37.160Z,6.82
2024-02-15T12:04:22.704Z,6.82
2024-02-15T12:07:07.905Z,6.38
2024-02-15T12:09:53.018Z,6.93
2024-02-15T12:12:38.186Z,7.35
2024-02-15T12:15:23.991Z,5.72
2024-02-15T12:18:09.572Z,11.27
2024-02-15T12:20:36.591Z,8.15
2024-02-15T12:23:03.898Z,8.25
2024-02-15T12:25:34.678Z,4.90
2024-02-15T12:28:03.177Z,6.05
2024-02-15T12:30:38.539Z,5.97
2024-02-15T12:33:20.984Z,6.90
2024-02-15T12:35:48.197Z,4.50
2024-02-15T12:38:17.814Z,5.07
2024-02-15T12:40:47.195Z,7.93
2024-02-15T12:43:17.220Z,7.10
2024-02-15T12:45:49.336Z,8.10
2024-02-15T12:48:28.968Z,5.82
2024-02-15T12:51:00.464Z,4.80
2024-02-15T12:53:27.847Z,8.30
2024-02-15T12:55:56.250Z,4.05
2024-02-15T12:58:25.780Z,9.60
2024-02-15T13:01:05.620Z,4.75
2024-02-15T13:03:32.947Z,4.05
2024-02-15T13:06:05.803Z,7.30
2024-02-15T13:08:33.086Z,7.88
2024-02-15T13:10:59.676Z,6.30
2024-02-15T13:13:26.225Z,7.55
2024-02-15T13:15:53.829Z,4.50
2024-02-15T13:18:21.240Z,4.30
2024-02-15T13:20:51.111Z,6.57
2024-02-15T13:23:23.399Z,7.28
2024-02-15T13:25:51.705Z,3.40
2024-02-15T13:30:46.812Z,3.70
2024-02-15T13:33:18.390Z,4.03
2024-02-15T13:35:45.386Z,3.15
2024-02-15T13:38:16.461Z,5.28
2024-02-15T13:40:45.431Z,4.25
2024-02-15T13:43:12.742Z,3.20
2024-02-15T13:45:42.759Z,4.10
2024-02-15T13:48:10.951Z,5.22
2024-02-15T13:50:38.670Z,5.78
2024-02-15T13:53:06.516Z,3.75
2024-02-15T13:55:33.408Z,4.82
2024-02-15T13:58:01.413Z,4.55
2024-02-15T14:03:00.353Z,2.55
2024-02-15T14:08:21.964Z,3.45
2024-02-15T14:10:54.763Z,7.47
2024-02-15T14:13:23.990Z,5.18
2024-02-15T14:15:50.927Z,5.13
2024-02-15T14:18:21.248Z,4.03
2024-02-15T14:20:49.218Z,6.65
2024-02-15T14:23:16.428Z,4.68
2024-02-15T14:25:54.315Z,5.80
2024-02-15T14:28:21.082Z,3.42
2024-02-15T14:31:06.412Z,5.53
2024-02-15T14:33:42.834Z,9.27
2024-02-15T14:36:09.674Z,3.58
2024-02-15T14:38:36.561Z,3.67
2024-02-15T14:41:09.036Z,4.57
2024-02-15T14:43:36.480Z,4.70
2024-02-15T14:46:06.581Z,4.45
2024-02-15T14:48:33.996Z,6.18
2024-02-15T14:51:01.828Z,5.03
2024-02-15T14:53:28.721Z,3.80
2024-02-15T14:55:55.665Z,6.65
2024-02-15T14:58:23.895Z,6.53
2024-02-15T15:00:51.012Z,3.95
2024-02-15T15:03:18.538Z,5.95
2024-02-15T15:06:05.320Z,4.72
2024-02-15T15:08:51.595Z,3.70
2024-02-15T15:11:36.943Z,5.22
2024-02-15T15:14:07.190Z,8.93
2024-02-15T15:16:35.265Z,4.95
2024-02-15T15:19:02.568Z,7.20
2024-02-15T15:21:29.710Z,6.13
2024-02-15T15:23:57.290Z,4.75
2024-02-15T15:26:24.232Z,6.18
2024-02-15T15:28:51.633Z,3.63
2024-02-15T15:31:18.577Z,7.78
2024-02-15T15:33:45.945Z,29.95
2024-02-15T15:36:12.995Z,16.50
2024-02-15T15:38:40.661Z,24.40
2024-02-15T15:41:10.659Z,7.82
2024-02-15T15:43:38.906Z,7.93
2024-02-15T15:46:06.009Z,6.18
2024-02-15T15:48:48.813Z,3.90
2024-02-15T15:51:16.532Z,8.30
2024-02-15T15:53:44.107Z,6.07
2024-02-15T15:56:11.001Z,5.40
2024-02-15T15:58:37.752Z,6.90
2024-02-15T16:01:05.362Z,12.73
2024-02-15T16:03:32.625Z,10.73
2024-02-15T16:06:00.040Z,10.07
2024-02-15T16:08:28.152Z,8.57
2024-02-15T16:10:55.566Z,5.57
2024-02-15T16:13:23.693Z,4.97
2024-02-15T16:18:30.180Z,5.00
2024-02-15T16:20:56.744Z,5.63
2024-02-15T16:23:24.124Z,4.55
2024-02-15T16:25:52.189Z,7.10
2024-02-15T16:28:18.725Z,7.70
2024-02-15T16:30:45.472Z,6.63
2024-02-15T16:33:12.151Z,5.82
2024-02-15T16:35:38.716Z,7.30
2024-02-15T16:38:06.377Z,6.47
2024-02-15T16:40:33.116Z,7.18
2024-02-15T16:42:59.844Z,6.15
2024-02-15T16:45:26.486Z,5.43
2024-02-15T16:47:57.968Z,7.97
2024-02-15T16:50:25.615Z,8.52
2024-02-15T16:52:53.132Z,8.68
2024-02-15T16:55:32.060Z,8.13
2024-02-15T16:58:03.802Z,10.07
2024-02-15T17:00:31.672Z,10.50
2024-02-15T17:03:06.213Z,12.43
2024-02-15T17:05:36.200Z,13.25
2024-02-15T17:08:07.749Z,9.07
2024-02-15T17:10:37.055Z,8.73
2024-02-15T17:13:05.447Z,10.45
2024-02-15T17:15:32.977Z,9.60
2024-02-15T17:17:59.720Z,13.15
2024-02-15T17:20:26.823Z,9.25
2024-02-15T17:22:54.087Z,7.07
2024-02-15T17:25:24.203Z,7.78
2024-02-15T17:27:53.392Z,9.82
2024-02-15T17:30:20.036Z,9.98
2024-02-15T17:32:47.157Z,11.85
2024-02-15T17:35:17.958Z,10.20
2024-02-15T17:37:44.764Z,12.38
2024-02-15T17:40:13.185Z,11.43
2024-02-15T17:42:43.969Z,12.25
2024-02-15T17:45:11.753Z,9.30
2024-02-15T17:47:42.504Z,9.43
2024-02-15T17:50:12.721Z,10.93
2024-02-15T17:52:39.860Z,6.63
2024-02-15T17:55:10.383Z,9.27
2024-02-15T17:57:47.105Z,7.45
2024-02-15T18:00:17.074Z,8.38
2024-02-15T18:02:51.215Z,7.90
2024-02-15T18:09:07.836Z,7.03
2024-02-15T18:11:35.292Z,7.63
2024-02-15T18:14:04.962Z,7.13
2024-02-15T18:16:31.640Z,5.97
2024-02-15T18:19:00.810Z,5.68
2024-02-15T18:21:28.189Z,6.00
2024-02-15T18:23:56.559Z,7.72
2024-02-15T18:26:23.206Z,6.35
2024-02-15T18:28:49.782Z,5.70
2024-02-15T18:31:18.438Z,5.68
2024-02-15T18:33:45.328Z,5.63
2024-02-15T18:36:11.930Z,6.50
2024-02-15T18:38:39.507Z,4.50
2024-02-15T18:41:07.220Z,7.95
2024-02-15T18:43:37.028Z,5.53
2024-02-15T18:46:06.533Z,3.85
2024-02-15T18:48:33.416Z,6.18
2024-02-15T18:51:03.353Z,5.93
2024-02-15T18:53:33.231Z,7.88
2024-02-15T18:55:59.929Z,7.50
2024-02-15T18:58:28.809Z,5.15
2024-02-15T19:00:58.366Z,8.45
2024-02-15T19:03:32.216Z,6.82
2024-02-15T19:06:20.865Z,7.53
2024-02-15T19:08:51.946Z,7.18
2024-02-15T19:11:30.134Z,6.13
2024-02-15T19:16:55.228Z,5.03
2024-02-15T19:21:47.763Z,5.65
2024-02-15T19:22:15.706Z,7.80
2024-02-15T19:25:20.938Z,5.85
2024-02-15T19:28:02.555Z,9.15
2024-02-15T19:30:35.637Z,3.97
2024-02-15T19:33:07.002Z,12.93
2024-02-15T19:35:39.082Z,17.33
2024-02-15T19:38:14.995Z,9.20
2024-02-15T19:40:43.924Z,17.23
2024-02-15T19:43:13.064Z,9.90
2024-02-15T19:45:43.091Z,11.68
2024-02-15T19:48:10.619Z,12.27
2024-02-15T19:50:43.238Z,9.95
2024-02-15T19:53:20.285Z,3.45
2024-02-15T19:56:20.167Z,4.35
2024-02-15T20:03:14.670Z,3.60
2024-02-15T20:06:06.102Z,3.85
2024-02-15T20:08:48.363Z,4.05
2024-02-15T20:11:35.674Z,2.35
2024-02-15T20:16:56.881Z,3.10
2024-02-15T20:19:33.564Z,3.50
2024-02-15T20:22:32.044Z,3.58
2024-02-15T20:25:38.135Z,1.88
2024-02-15T20:29:10.622Z,2.63
2024-02-15T20:31:28.747Z,2.70
2024-02-15T20:34:26.475Z,2.42
2024-02-15T20:39:43.025Z,5.10
2024-02-15T20:42:39.709Z,3.58
2024-02-15T20:45:10.653Z,2.75
2024-02-15T20:50:49.907Z,2.85
2024-02-15T20:53:19.211Z,5.15
2024-02-15T20:58:52.092Z,4.90
2024-02-15T21:01:19.865Z,2.83
2024-02-15T21:03:52.731Z,2.70
2024-02-15T21:07:27.353Z,2.80
2024-02-15T21:09:30.078Z,3.42
2024-02-15T21:11:59.608Z,3.78
2024-02-15T21:14:52.245Z,3.45
2024-02-15T21:17:31.256Z,2.22
2024-02-15T21:23:02.022Z,3.08
2024-02-15T21:23:30.688Z,4.07
2024-02-15T21:25:35.402Z,2.45
2024-02-15T21:28:10.884Z,7.03
2024-02-15T21:31:18.653Z,4.15
2024-02-15T21:33:46.247Z,4.93
2024-02-15T21:36:14.379Z,4.57
2024-02-15T21:38:59.292Z,4.25
2024-02-15T21:41:33.486Z,3.88
2024-02-15T21:44:00.053Z,8.48
2024-02-15T21:46:26.923Z,2.95
2024-02-15T21:48:54.280Z,3.42
2024-02-15T21:51:22.977Z,3.33
2024-02-15T21:53:49.647Z,3.60
2024-02-15T21:56:17.281Z,8.07
2024-02-15T21:58:43.814Z,2.33
2024-02-15T22:01:10.725Z,4.10
2024-02-15T22:03:37.358Z,6.13
2024-02-15T22:06:04.210Z,6.45
2024-02-15T22:08:34.854Z,4.25
2024-02-15T22:11:01.674Z,4.90
2024-02-15T22:13:28.244Z,4.50
2024-02-15T22:15:54.710Z,6.30
2024-02-15T22:18:21.292Z,3.40
2024-02-15T22:20:48.100Z,4.82
2024-02-15T22:23:14.805Z,4.50
2024-02-15T22:25:41.384Z,4.15
2024-02-15T22:28:23.781Z,2.45
2024-02-15T22:30:50.230Z,2.88
2024-02-15T22:33:24.453Z,3.95
2024-02-15T22:35:51.177Z,3.97
2024-02-15T22:38:18.213Z,3.22
2024-02-15T22:40:44.964Z,5.57
2024-02-15T22:43:11.617Z,4.32
2024-02-15T22:45:38.673Z,2.97
2024-02-15T22:48:05.504Z,4.30
2024-02-15T22:50:32.099Z,3.17
2024-02-15T22:52:58.764Z,7.43
2024-02-15T22:55:25.223Z,4.22
2024-02-15T22:57:51.835Z,3.22
2024-02-15T23:00:18.469Z,3.22
2024-02-15T23:02:45.429Z,3.95
2024-02-15T23:05:12.317Z,3.05
2024-02-15T23:07:39.147Z,4.70
2024-02-15T23:10:07.440Z,4.60
2024-02-15T23:12:34.440Z,3.63
2024-02-15T23:15:01.027Z,3.65
2024-02-15T23:17:31.758Z,6.57
2024-02-15T23:19:58.860Z,3.70
2024-02-15T23:22:25.356Z,5.88
2024-02-15T23:24:51.867Z,3.05
2024-02-15T23:27:18.674Z,4.75
2024-02-15T23:29:45.300Z,4.75
2024-02-15T23:32:11.812Z,2.75
2024-02-15T23:34:38.376Z,4.22
2024-02-15T23:37:23.467Z,3.58
2024-02-15T23:40:28.083Z,3.33
2024-02-15T23:42:55.671Z,3.28
2024-02-15T23:45:23.592Z,5.38
2024-02-15T23:47:50.334Z,5.03
2024-02-15T23:50:17.385Z,4.63
2024-02-15T23:52:46.928Z,4.28
2024-02-15T23:55:14.977Z,4.85
2024-02-15T23:57:43.039Z,4.53
